Saturday, April 21, 2018, 9:04 PM EDT
Back to Local

KTHV, York Airport

Location: Spring Grove, PA, United States Lat: 39.917
Local Time: 9:04 PM EDT ( 1:04 GMT) Lon: -76.883
Time Zone: US/Eastern Elev: 478 ft

Show me the last for .
Show Decoded

2018-04-21 19:53 METAR KTHV 212353Z AUTO 00000KT 10SM CLR 10/01 A3034 RMK AO2 SLP279 T01000011
                 10150 20100 53002 =
2018-04-21 18:53 METAR KTHV 212253Z AUTO 00000KT 10SM CLR 14/M03 A3033 RMK AO2 SLP276 T01441033 =
2018-04-21 17:53 METAR KTHV 212153Z AUTO 31004KT 10SM CLR 14/M03 A3032 RMK AO2 SLP274 T01441028 =
2018-04-21 16:53 METAR KTHV 212053Z AUTO 00000KT 10SM CLR 15/M03 A3033 RMK AO2 SLP276 T01501028
                 56020 =
2018-04-21 15:53 METAR KTHV 211953Z AUTO 02005KT 10SM CLR 14/M01 A3035 RMK AO2 SLP282 T01441011 =
2018-04-21 14:53 METAR KTHV 211853Z AUTO VRB05KT 10SM CLR 14/M01 A3037 RMK AO2 SLP289 T01391011 =
2018-04-21 13:53 METAR KTHV 211753Z AUTO 29005KT 10SM CLR 12/M02 A3039 RMK AO2 SLP297 T01171022
                 10122 20006 58027 =
2018-04-21 12:53 METAR KTHV 211653Z AUTO 24006KT 10SM CLR 11/M02 A3042 RMK AO2 SLP306 T01061017 =
2018-04-21 11:53 METAR KTHV 211553Z AUTO 10SM CLR 10/M03 A3045 RMK AO2 SLP317 T01001028 =
2018-04-21 10:53 METAR KTHV 211453Z AUTO 29005KT 10SM CLR 09/M03 A3047 RMK AO2 SLP325 T00891028
                 50004 =
2018-04-21 09:53 METAR KTHV 211353Z AUTO 31003KT 10SM CLR 07/M02 A3048 RMK AO2 SLP325 T00721022 =
2018-04-21 08:53 METAR KTHV 211253Z AUTO 29004KT 10SM CLR 06/M01 A3048 RMK AO2 SLP326 T00611011 =
2018-04-21 07:53 METAR KTHV 211153Z AUTO 00000KT 10SM CLR 01/M01 A3046 RMK AO2 SLP322 T00061011
                 10006 21039 53005 =
2018-04-21 06:53 METAR KTHV 211053Z AUTO 00000KT 10SM CLR M02/M03 A3045 RMK AO2 SLP318 T10221033
                 =
2018-04-21 05:53 METAR KTHV 210953Z AUTO 00000KT 10SM CLR M03/M04 A3044 RMK AO2 SLP316 T10331044
                 =
2018-04-21 04:53 METAR KTHV 210853Z AUTO 00000KT 10SM CLR M03/M04 A3045 RMK AO2 SLP316 T10281044
                 53007 =
2018-04-21 03:53 METAR KTHV 210753Z AUTO 00000KT 10SM CLR M02/M04 A3044 RMK AO2 SLP315 T10221039
                 =
2018-04-21 02:53 METAR KTHV 210653Z AUTO 00000KT 10SM CLR M02/M03 A3042 RMK AO2 SLP308 T10221033
                 =
2018-04-21 01:53 METAR KTHV 210553Z AUTO 00000KT 10SM CLR M01/M03 A3042 RMK AO2 SLP309 T10111028
                 10100 21011 51015 =
2018-04-21 00:53 METAR KTHV 210453Z AUTO 00000KT 10SM CLR M01/M02 A3041 RMK AO2 SLP305 T10061022
                 401331006 =
2018-04-20 23:53 METAR KTHV 210353Z AUTO 00000KT 10SM CLR 02/M03 A3040 RMK AO2 SLP299 T00171028 =
2018-04-20 22:53 METAR KTHV 210253Z AUTO 01003KT 10SM CLR 02/M02 A3038 RMK AO2 SLP293 T00221022
                 51029 =
2018-04-20 21:53 METAR KTHV 210153Z AUTO 01003KT 10SM CLR 08/M03 A3036 RMK AO2 SLP286 T00781033 =

Support USWX by starting your Amazon purchase here.